Terminal Aerodrome Forecast
Issued by NWS St Louis, MO

Home | Current Version | Previous Version | Text Only | Print | Product List | Glossary On
Versions: 1 2 3 4 5 6 7 8 9 10 11 12 13 14 15 16 17 18 19 20 21 22 23 24 25 26
897
FTUS43 KLSX 251514 AAA
TAFSTL
TAF AMD
KSTL 251514Z 2515/2618 24007KT P6SM FEW040 SCT250
     FM251800 25008KT P6SM SCT050 BKN120
     FM260000 27009KT 6SM -SHRA VCTS BKN060CB
     FM260400 30010KT P6SM BKN050
     FM261500 30011KT P6SM SCT040=

USA.gov is the U.S. government's official web portal to all federal, state and local government web resources and services.